Time;durP1;ratioP1;P1;durP2;ratioP2;P2;SDS_P1;SDS_P2;PMS_P1;PMS_P2;Temp;Humidity;BMP_temperature;BMP_pressure;BME280_temperature;BME280_humidity;BME280_pressure;Samples;Min_cycle;Max_cycle;Signal;HPM_P1;HPM_P2
2022/11/02 00:04:46;;;;;;;35.70;18.60;;;;;;;9.72;100.00;99080.99;214795;1309;22466;-82
2022/11/02 00:09:48;;;;;;;36.60;19.40;;;;;;;9.70;100.00;99088.54;214883;1309;22497;-83
2022/11/02 00:14:56;;;;;;;34.20;17.30;;;;;;;9.68;100.00;99089.30;214714;1309;24453;-82
2022/11/02 00:19:58;;;;;;;33.80;17.30;;;;;;;9.66;100.00;99092.10;214801;1309;25264;-83
2022/11/02 00:25:02;;;;;;;30.90;16.10;;;;;;;9.65;100.00;99094.81;214725;1309;22472;-83
2022/11/02 00:30:05;;;;;;;31.70;18.40;;;;;;;9.65;100.00;99088.88;214862;1309;22532;-83
2022/11/02 00:35:07;;;;;;;34.70;18.30;;;;;;;9.65;100.00;99092.30;214866;1309;22519;-83
2022/11/02 00:40:10;;;;;;;36.70;18.10;;;;;;;9.64;100.00;99093.33;214772;1309;26488;-83
2022/11/02 00:45:12;;;;;;;40.60;20.40;;;;;;;9.62;100.00;99093.77;214679;1309;22479;-81
2022/11/02 00:50:14;;;;;;;35.20;18.30;;;;;;;9.60;100.00;99092.88;214795;1309;25414;-83
2022/11/02 00:55:16;;;;;;;42.40;19.50;;;;;;;9.56;100.00;99092.83;215266;1309;24515;-82
2022/11/02 01:00:19;;;;;;;34.80;17.60;;;;;;;9.53;100.00;99096.85;214839;1309;24253;-83
2022/11/02 01:05:21;;;;;;;31.80;17.10;;;;;;;9.51;100.00;99101.50;214767;1309;25307;-81
2022/11/02 01:10:24;;;;;;;36.80;17.80;;;;;;;9.47;100.00;99101.95;214740;1309;25408;-83
2022/11/02 01:15:27;;;;;;;30.90;17.00;;;;;;;9.42;100.00;99100.73;214872;1309;25217;-83
2022/11/02 01:20:29;;;;;;;34.40;17.90;;;;;;;9.38;100.00;99103.05;214804;1306;22615;-85
2022/11/02 01:25:30;;;;;;;35.30;17.20;;;;;;;9.35;100.00;99105.57;215636;1308;22464;-84
2022/11/02 01:30:32;;;;;;;34.70;17.10;;;;;;;9.31;100.00;99096.11;215608;1307;22464;-84
2022/11/02 01:35:37;;;;;;;36.40;18.00;;;;;;;9.26;100.00;99094.36;215568;1304;23792;-83
2022/11/02 01:40:39;;;;;;;29.20;16.70;;;;;;;9.21;100.00;99097.16;215640;1309;22524;-83
2022/11/02 01:45:41;;;;;;;35.90;17.90;;;;;;;9.18;100.00;99096.90;214789;1309;22491;-83
2022/11/02 01:50:43;;;;;;;35.20;17.30;;;;;;;9.15;100.00;99096.26;214687;1309;22479;-83
2022/11/02 01:55:45;;;;;;;41.20;18.90;;;;;;;9.13;100.00;99099.31;214893;1309;22601;-84
2022/11/02 02:00:47;;;;;;;37.40;18.30;;;;;;;9.12;100.00;99101.99;214874;1308;26162;-83
2022/11/02 02:05:55;;;;;;;36.00;18.00;;;;;;;9.09;100.00;99106.21;214871;1309;23905;-83
2022/11/02 02:10:58;;;;;;;29.50;16.50;;;;;;;9.06;100.00;99111.55;215271;1309;123091;-81
2022/11/02 02:16:48;;;;;;;34.00;17.60;;;;;;;9.03;100.00;99115.10;214779;1309;25688;-83
2022/11/02 02:22:09;;;;;;;33.00;17.10;;;;;;;9.04;100.00;99112.91;214800;1309;22518;-83
2022/11/02 02:27:52;;;;;;;33.80;16.80;;;;;;;9.05;100.00;99113.61;214806;1309;22545;-83
2022/11/02 02:33:09;;;;;;;31.90;16.40;;;;;;;9.03;100.00;99102.96;214578;1309;24254;-84
2022/11/02 02:38:18;;;;;;;29.70;15.00;;;;;;;8.97;100.00;99098.38;215539;1309;22929;-84
2022/11/02 02:43:33;;;;;;;31.30;15.80;;;;;;;8.93;100.00;99101.86;215510;1309;23378;-84
2022/11/02 02:48:41;;;;;;;34.80;16.20;;;;;;;8.96;100.00;99102.33;215658;1309;24213;-83
2022/11/02 02:53:56;;;;;;;31.60;15.40;;;;;;;8.99;100.00;99105.86;214930;1309;25421;-83
2022/11/02 02:59:06;;;;;;;36.60;16.90;;;;;;;9.03;100.00;99107.89;214871;1309;25381;-83
2022/11/02 03:04:11;;;;;;;35.70;17.20;;;;;;;9.05;100.00;99107.61;214859;1309;26437;-83
2022/11/02 03:09:33;;;;;;;31.70;17.00;;;;;;;9.03;100.00;99106.81;214931;1309;25221;-84
2022/11/02 03:14:51;;;;;;;35.10;18.10;;;;;;;8.99;100.00;99111.52;214750;1309;22472;-84
2022/11/02 03:20:07;;;;;;;35.70;16.50;;;;;;;8.99;100.00;99110.99;214731;1309;22460;-84
2022/11/02 03:25:25;;;;;;;40.70;18.70;;;;;;;9.01;100.00;99116.98;214900;1309;25351;-85
2022/11/02 03:30:36;;;;;;;41.30;20.00;;;;;;;8.99;100.00;99120.13;214881;1309;25360;-84
2022/11/02 03:35:52;;;;;;;38.10;19.10;;;;;;;8.97;100.00;99123.23;214814;1309;25442;-83
2022/11/02 03:40:56;;;;;;;42.20;20.20;;;;;;;8.98;100.00;99124.88;214663;1296;24069;-84
2022/11/02 03:46:01;;;;;;;39.70;19.30;;;;;;;9.01;100.00;99122.11;214882;1309;22770;-84
2022/11/02 03:51:08;;;;;;;38.50;19.60;;;;;;;9.04;100.00;99125.89;214896;1309;22516;-83
2022/11/02 03:56:22;;;;;;;41.70;19.90;;;;;;;9.09;100.00;99124.88;214797;1309;23380;-82
2022/11/02 04:01:26;;;;;;;41.50;19.10;;;;;;;9.15;100.00;99129.56;215050;1301;24321;-84
2022/11/02 04:06:30;;;;;;;44.70;21.50;;;;;;;9.21;100.00;99138.55;215627;1303;22460;-84
2022/11/02 04:19:26;;;;;;;50.60;22.70;;;;;;;9.30;100.00;99154.24;214788;1309;25268;-83
2022/11/02 04:27:46;;;;;;;42.00;19.00;;;;;;;9.34;100.00;99150.70;214823;1309;22466;-84
2022/11/02 04:43:40;;;;;;;41.90;19.90;;;;;;;9.23;100.00;99152.42;214780;1309;25756;-84
2022/11/02 04:48:42;;;;;;;37.80;19.40;;;;;;;9.17;100.00;99148.13;215611;1309;24503;-84
2022/11/02 04:53:46;;;;;;;46.10;21.60;;;;;;;9.13;100.00;99148.91;215574;1309;25277;-84
2022/11/02 04:58:49;;;;;;;39.60;19.20;;;;;;;9.10;100.00;99145.45;215786;1309;22508;-86
2022/11/02 05:03:54;;;;;;;51.00;21.50;;;;;;;9.07;100.00;99139.63;215469;1309;22487;-84
2022/11/02 05:08:57;;;;;;;52.40;22.80;;;;;;;9.06;100.00;99140.59;215295;1309;23003;-82
2022/11/02 05:13:59;;;;;;;57.30;23.70;;;;;;;9.02;100.00;99136.64;214762;1309;22486;-85
2022/11/02 05:19:02;;;;;;;67.80;26.80;;;;;;;8.99;100.00;99135.79;214818;1309;25277;-84
2022/11/02 05:24:11;;;;;;;43.20;19.90;;;;;;;8.94;100.00;99133.27;214861;1309;24220;-86
2022/11/02 05:29:13;;;;;;;51.60;22.50;;;;;;;8.86;100.00;99142.95;214727;1309;25361;-84
2022/11/02 05:34:15;;;;;;;53.40;22.80;;;;;;;8.80;100.00;99153.75;214779;1309;23247;-84
2022/11/02 05:39:17;;;;;;;53.50;22.20;;;;;;;8.76;100.00;99156.31;214724;1309;22452;-84
2022/11/02 05:44:21;;;;;;;52.20;22.40;;;;;;;8.79;100.00;99161.11;215475;1309;25350;-83
2022/11/02 05:49:23;;;;;;;57.90;24.10;;;;;;;8.85;100.00;99164.64;215622;1302;22517;-84
2022/11/02 05:54:25;;;;;;;51.70;23.00;;;;;;;8.92;100.00;99163.41;215513;1309;22722;-84
2022/11/02 05:59:27;;;;;;;57.20;23.30;;;;;;;8.98;100.00;99163.41;215501;1309;22508;-84
2022/11/02 06:04:29;;;;;;;57.90;24.60;;;;;;;9.03;100.00;99170.53;215547;1309;25295;-84
2022/11/02 06:09:31;;;;;;;53.00;23.50;;;;;;;9.08;100.00;99176.55;215618;1309;22430;-85
2022/11/02 06:14:32;;;;;;;48.50;22.20;;;;;;;9.15;100.00;99173.83;215644;1301;24325;-84
2022/11/02 06:19:34;;;;;;;55.80;24.50;;;;;;;9.19;100.00;99179.66;215661;1309;24270;-83
2022/11/02 06:24:36;;;;;;;48.80;23.60;;;;;;;9.23;100.00;99179.17;215599;1309;26729;-84
2022/11/02 06:29:38;;;;;;;55.10;24.20;;;;;;;9.30;100.00;99183.59;215658;1294;22514;-82
2022/11/02 06:34:40;;;;;;;63.40;25.80;;;;;;;9.41;100.00;99178.71;215248;1279;24264;-83
2022/11/02 06:39:42;;;;;;;46.50;21.90;;;;;;;9.56;100.00;99192.05;215035;1309;22542;-84
2022/11/02 06:44:43;;;;;;;55.00;23.80;;;;;;;9.68;100.00;99186.04;215229;1285;22635;-81
2022/11/02 06:49:45;;;;;;;49.10;21.10;;;;;;;9.70;100.00;99189.92;215144;1301;22683;-81
2022/11/02 06:54:47;;;;;;;49.20;22.30;;;;;;;9.74;100.00;99195.80;215187;1285;23343;-81
2022/11/02 06:59:49;;;;;;;37.90;19.30;;;;;;;9.81;100.00;99188.02;215140;1295;22541;-82
2022/11/02 07:04:55;;;;;;;39.20;18.70;;;;;;;9.83;100.00;99196.20;215650;1277;23269;-79
2022/11/02 07:09:58;;;;;;;36.10;19.30;;;;;;;9.87;100.00;99192.45;216974;1280;100578;-80
2022/11/02 07:15:00;;;;;;;35.80;16.90;;;;;;;9.88;100.00;99200.30;217566;1285;100634;-80
2022/11/02 07:20:03;;;;;;;34.60;17.00;;;;;;;9.91;100.00;99203.98;215953;1281;22642;-78
2022/11/02 07:25:05;;;;;;;28.10;15.60;;;;;;;9.99;100.00;99204.88;214842;1277;99657;-78
2022/11/02 07:30:07;;;;;;;39.30;20.40;;;;;;;10.11;100.00;99207.02;215107;1278;100311;-77
2022/11/02 07:35:11;;;;;;;38.10;19.10;;;;;;;10.25;100.00;99212.20;215009;1282;100733;-79
2022/11/02 07:40:13;;;;;;;46.10;19.90;;;;;;;10.38;100.00;99208.84;215219;1285;100216;-80
2022/11/02 07:45:15;;;;;;;39.10;20.20;;;;;;;10.53;100.00;99202.08;216459;1278;100526;-79
2022/11/02 07:50:21;;;;;;;41.80;18.70;;;;;;;10.63;100.00;99201.74;215268;1277;23710;-79
2022/11/02 07:55:30;;;;;;;37.10;18.10;;;;;;;10.75;100.00;99205.73;215678;1277;100747;-79
2022/11/02 08:00:34;;;;;;;37.30;18.20;;;;;;;10.91;100.00;99206.63;215094;1284;100193;-78
2022/11/02 08:05:38;;;;;;;33.80;18.30;;;;;;;11.18;100.00;99203.90;215606;1278;100228;-78
2022/11/02 08:10:41;;;;;;;34.50;17.50;;;;;;;11.33;100.00;99204.14;215961;1278;100121;-80
2022/11/02 08:15:51;;;;;;;29.70;16.10;;;;;;;11.39;100.00;99206.13;217638;1278;100742;-79
2022/11/02 08:20:57;;;;;;;31.00;16.50;;;;;;;11.31;100.00;99204.32;215454;1285;100925;-79
2022/11/02 08:25:59;;;;;;;31.30;16.90;;;;;;;11.38;100.00;99205.43;215102;1277;22513;-78
2022/11/02 08:31:01;;;;;;;31.60;17.10;;;;;;;11.39;100.00;99209.30;215145;1277;100469;-79
2022/11/02 08:36:03;;;;;;;23.70;14.30;;;;;;;11.41;100.00;99209.38;215216;1277;100698;-78
2022/11/02 08:41:05;;;;;;;24.30;13.50;;;;;;;11.55;100.00;99213.38;215248;1277;100457;-79
2022/11/02 08:46:07;;;;;;;25.40;14.90;;;;;;;11.75;100.00;99211.45;215154;1277;100222;-79
2022/11/02 08:51:15;;;;;;;24.70;14.20;;;;;;;11.94;100.00;99208.04;215316;1277;100183;-78
2022/11/02 08:56:20;;;;;;;27.30;15.30;;;;;;;12.04;100.00;99207.13;215338;1285;25306;-78
2022/11/02 09:01:22;;;;;;;25.10;14.30;;;;;;;12.05;100.00;99199.21;215248;1282;99846;-78
2022/11/02 09:06:24;;;;;;;27.30;14.60;;;;;;;12.13;100.00;99200.10;215241;1309;99916;-77
2022/11/02 09:11:26;;;;;;;22.00;13.30;;;;;;;12.25;100.00;99202.23;215569;1285;100308;-77
2022/11/02 09:16:28;;;;;;;24.70;12.50;;;;;;;12.41;100.00;99200.15;215419;1282;100332;-77
2022/11/02 09:21:43;;;;;;;22.60;12.60;;;;;;;12.56;100.00;99196.89;215371;1278;100232;-77
2022/11/02 09:26:47;;;;;;;20.30;12.00;;;;;;;12.64;100.00;99187.31;216018;1285;24387;-78
2022/11/02 09:31:49;;;;;;;20.40;11.30;;;;;;;12.78;100.00;99192.52;215880;1285;25305;-78
2022/11/02 09:36:51;;;;;;;20.90;11.40;;;;;;;12.95;100.00;99196.67;215356;1278;100189;-78
2022/11/02 09:42:33;;;;;;;15.50;10.20;;;;;;;13.09;100.00;99201.45;215190;1285;100142;-79
2022/11/02 09:47:47;;;;;;;16.20;9.90;;;;;;;13.26;100.00;99199.27;215626;1285;100658;-82
2022/11/02 09:53:16;;;;;;;19.80;11.60;;;;;;;13.42;100.00;99197.37;216339;1302;100000;-78
2022/11/02 09:58:28;;;;;;;14.70;8.90;;;;;;;13.64;100.00;99198.27;216393;1309;100266;-80
2022/11/02 10:03:43;;;;;;;17.80;10.30;;;;;;;13.86;100.00;99196.06;216352;1285;99976;-78
2022/11/02 10:09:16;;;;;;;11.30;8.00;;;;;;;14.02;99.98;99197.79;216533;1295;23582;-83
2022/11/02 10:14:30;;;;;;;11.40;7.30;;;;;;;14.17;99.63;99195.54;217423;1302;23817;-84
2022/11/02 10:19:35;;;;;;;9.60;6.00;;;;;;;14.34;98.88;99192.65;216502;1287;99676;-76
2022/11/02 10:24:45;;;;;;;8.90;5.90;;;;;;;14.52;98.34;99187.61;215157;1285;99499;-78
2022/11/02 10:30:04;;;;;;;7.10;4.80;;;;;;;14.66;97.54;99178.41;215359;1300;99554;-76
2022/11/02 10:35:28;;;;;;;;;;;;;;;14.83;96.58;99174.90;215160;1285;99634;-76
2022/11/02 10:41:05;;;;;;;5.00;3.80;;;;;;;14.94;94.57;99173.08;215201;1278;86200;-73
2022/11/02 10:46:22;;;;;;;6.50;4.30;;;;;;;15.06;93.91;99173.27;215414;1284;101146;-74
2022/11/02 10:51:24;;;;;;;6.40;3.90;;;;;;;15.23;93.10;99176.23;215272;1287;99708;-74
2022/11/02 10:56:31;;;;;;;6.70;4.80;;;;;;;15.35;92.24;99171.58;215415;1277;22971;-76
2022/11/02 11:01:32;;;;;;;4.70;3.40;;;;;;;15.47;91.81;99172.29;215169;1288;99320;-76
2022/11/02 11:06:38;;;;;;;6.50;3.20;;;;;;;15.58;91.14;99173.17;215038;1278;99381;-76
2022/11/02 11:11:40;;;;;;;5.10;3.60;;;;;;;15.65;89.81;99174.80;215608;1285;99365;-76
2022/11/02 11:16:46;;;;;;;6.10;4.00;;;;;;;15.61;87.93;99172.58;215499;1285;99567;-76
2022/11/02 11:21:49;;;;;;;7.90;3.70;;;;;;;15.62;88.41;99173.12;215420;1282;99941;-76
2022/11/02 11:27:12;;;;;;;7.30;4.30;;;;;;;15.74;89.07;99169.93;215142;1309;22966;-83
2022/11/02 11:32:18;;;;;;;6.70;4.60;;;;;;;15.87;88.78;99163.60;216615;1295;22486;-79
2022/11/02 11:37:20;;;;;;;10.50;5.60;;;;;;;15.84;87.69;99161.05;215255;1277;99491;-75
2022/11/02 11:42:25;;;;;;;6.90;4.30;;;;;;;15.85;87.85;99159.39;215212;1285;99704;-75
2022/11/02 11:47:33;;;;;;;10.20;4.00;;;;;;;15.94;88.00;99151.70;215160;1288;99558;-75
2022/11/02 11:52:35;;;;;;;5.90;4.10;;;;;;;16.01;87.30;99140.17;215083;1285;99689;-77
2022/11/02 11:57:38;;;;;;;6.30;4.10;;;;;;;16.12;86.89;99140.13;215359;1285;99656;-77
2022/11/02 12:02:40;;;;;;;8.10;4.80;;;;;;;16.15;85.48;99140.31;215326;1286;22477;-77
2022/11/02 12:07:55;;;;;;;7.10;4.60;;;;;;;16.14;85.62;99137.73;215270;1286;99378;-77
2022/11/02 12:13:09;;;;;;;6.20;3.80;;;;;;;16.21;84.57;99143.76;215776;1277;99309;-74
2022/11/02 12:18:17;;;;;;;7.40;3.70;;;;;;;16.25;84.02;99138.07;215329;1285;99507;-76
2022/11/02 12:23:50;;;;;;;5.10;3.20;;;;;;;16.24;83.32;99135.27;215247;1309;99479;-75
2022/11/02 12:29:21;;;;;;;7.30;3.80;;;;;;;16.27;83.36;99135.20;215371;1300;99476;-70
2022/11/02 12:34:50;;;;;;;6.40;3.70;;;;;;;16.30;83.70;99126.88;215005;1284;99885;-78
2022/11/02 12:40:12;;;;;;;5.90;4.10;;;;;;;16.38;83.57;99127.67;215271;1287;98689;-74
2022/11/02 12:45:47;;;;;;;6.70;3.90;;;;;;;16.37;81.98;99126.66;215251;1295;99431;-74
2022/11/02 12:50:54;;;;;;;5.40;4.60;;;;;;;16.23;81.55;99129.96;215200;1277;22550;-74
2022/11/02 12:56:00;;;;;;;5.50;4.20;;;;;;;16.15;82.46;99124.58;215350;1281;99169;-75
2022/11/02 13:01:17;;;;;;;7.50;4.10;;;;;;;16.21;82.57;99124.29;215328;1277;99521;-73
2022/11/02 13:06:34;;;;;;;8.80;4.50;;;;;;;16.21;82.06;99124.08;215316;1285;99568;-73
2022/11/02 13:11:42;;;;;;;5.70;4.40;;;;;;;16.15;82.55;99121.02;215558;1277;99867;-76
2022/11/02 13:16:49;;;;;;;7.90;4.20;;;;;;;16.08;82.87;99124.80;215266;1285;99468;-75
2022/11/02 13:21:55;;;;;;;9.30;4.60;;;;;;;16.04;83.27;99126.15;215079;1285;99504;-74
2022/11/02 13:27:01;;;;;;;7.30;4.40;;;;;;;16.04;83.43;99124.95;215277;1278;26433;-74
2022/11/02 13:32:26;;;;;;;6.30;4.40;;;;;;;16.11;83.73;99132.17;215254;1281;22469;-74
2022/11/02 13:37:39;;;;;;;8.40;4.20;;;;;;;16.20;83.70;99133.23;215026;1285;99958;-74
2022/11/02 13:43:29;;;;;;;8.20;5.20;;;;;;;16.18;83.36;99129.67;215157;1285;99352;-77
2022/11/02 13:48:38;;;;;;;5.60;4.10;;;;;;;16.04;83.42;99133.50;214923;1277;99361;-75
2022/11/02 13:53:51;;;;;;;7.40;5.40;;;;;;;15.88;83.56;99133.10;215191;1284;99244;-73
2022/11/02 13:58:58;;;;;;;6.30;4.70;;;;;;;15.73;83.66;99129.83;215201;1284;100521;-73
2022/11/02 14:04:07;;;;;;;7.80;5.30;;;;;;;15.55;83.90;99125.82;215144;1277;100252;-73
2022/11/02 14:09:23;;;;;;;6.80;4.70;;;;;;;15.41;84.23;99123.13;215361;1277;103035;-73
2022/11/02 14:14:25;;;;;;;7.00;4.80;;;;;;;15.25;84.25;99126.05;216103;1278;23750;-72
2022/11/02 14:19:47;;;;;;;10.20;6.90;;;;;;;15.11;84.38;99126.36;215257;1277;99934;-73
2022/11/02 14:24:53;;;;;;;8.80;5.40;;;;;;;14.96;84.50;99134.30;215161;1278;100060;-73
2022/11/02 14:29:56;;;;;;;8.30;4.70;;;;;;;14.86;84.79;99139.30;215180;1283;99873;-73
2022/11/02 14:35:10;;;;;;;11.40;6.10;;;;;;;14.80;84.78;99138.63;215327;1285;99561;-74
2022/11/02 14:40:28;;;;;;;12.80;6.20;;;;;;;14.75;85.03;99133.41;215135;1283;100274;-74
2022/11/02 14:45:43;;;;;;;7.50;5.30;;;;;;;14.67;85.28;99135.48;215188;1284;100185;-74
2022/11/02 14:50:59;;;;;;;9.50;5.50;;;;;;;14.52;85.35;99140.99;215076;1277;22533;-74
2022/11/02 14:56:02;;;;;;;11.40;5.70;;;;;;;14.34;85.85;99141.61;215112;1285;99329;-75
2022/11/02 15:01:05;;;;;;;13.60;5.90;;;;;;;14.20;86.19;99151.72;215117;1278;99496;-75
2022/11/02 15:06:09;;;;;;;58.00;36.50;;;;;;;14.06;86.80;99157.13;214883;1295;99673;-74
2022/11/02 15:11:48;;;;;;;23.50;13.20;;;;;;;14.00;87.11;99163.08;214944;1284;23914;-75
2022/11/02 15:16:51;;;;;;;15.70;8.20;;;;;;;13.85;87.18;99174.80;214731;1297;22535;-75
2022/11/02 15:22:32;;;;;;;13.50;7.30;;;;;;;13.76;87.53;99179.26;214767;1309;24304;-74
2022/11/02 15:27:35;;;;;;;16.70;8.50;;;;;;;13.65;87.77;99185.96;214780;1309;22527;-75
2022/11/02 15:32:43;;;;;;;14.80;7.60;;;;;;;13.52;87.79;99192.49;214566;1309;22477;-76
2022/11/02 15:37:45;;;;;;;17.60;7.80;;;;;;;13.39;87.72;99201.45;214850;1309;22658;-75
2022/11/02 15:43:26;;;;;;;10.80;5.90;;;;;;;13.27;87.49;99205.71;214676;1304;22470;-76
2022/11/02 15:48:47;;;;;;;9.30;5.40;;;;;;;13.14;86.90;99209.55;214792;1309;25337;-75
2022/11/02 15:54:26;;;;;;;11.20;5.20;;;;;;;13.00;86.32;99213.05;214608;1297;22492;-75
2022/11/02 15:59:54;;;;;;;8.00;4.30;;;;;;;12.87;85.71;99210.72;214705;1309;26442;-75
2022/11/02 16:04:59;;;;;;;7.20;3.40;;;;;;;12.74;85.19;99208.07;214813;1309;22489;-74
2022/11/02 16:10:21;;;;;;;11.10;4.20;;;;;;;12.64;84.87;99224.77;214632;1309;24397;-75
2022/11/02 16:15:24;;;;;;;6.60;3.30;;;;;;;12.50;84.57;99225.77;214641;1309;22598;-75
2022/11/02 16:20:29;;;;;;;8.20;4.50;;;;;;;12.38;84.37;99231.09;214453;1309;22621;-75
2022/11/02 16:25:39;;;;;;;7.50;4.20;;;;;;;12.25;84.27;99236.90;214694;1309;23143;-76
2022/11/02 16:30:41;;;;;;;9.40;4.60;;;;;;;12.13;84.22;99238.60;214790;1309;25298;-74
2022/11/02 16:35:43;;;;;;;9.60;4.60;;;;;;;11.99;84.05;99240.37;214701;1310;22470;-75
2022/11/02 16:40:45;;;;;;;7.80;4.30;;;;;;;11.87;83.86;99239.93;214711;1309;22491;-75
2022/11/02 16:45:53;;;;;;;8.20;4.20;;;;;;;11.74;83.69;99236.80;214636;1309;22491;-74
2022/11/02 16:51:03;;;;;;;7.30;3.80;;;;;;;11.63;83.73;99242.86;214817;1309;22512;-75
2022/11/02 16:56:26;;;;;;;13.60;4.10;;;;;;;11.54;83.64;99245.48;214667;1309;22523;-76
2022/11/02 17:01:37;;;;;;;9.00;4.20;;;;;;;11.43;83.71;99251.80;214617;1309;23012;-74
2022/11/02 17:06:40;;;;;;;8.30;4.10;;;;;;;11.35;83.63;99250.27;214755;1310;22470;-76
2022/11/02 17:11:43;;;;;;;11.70;5.20;;;;;;;11.30;83.56;99260.39;214806;1309;24289;-75
2022/11/02 17:17:04;;;;;;;7.30;4.40;;;;;;;11.24;83.62;99261.14;214689;1309;22505;-75
2022/11/02 17:22:23;;;;;;;8.50;5.00;;;;;;;11.13;83.77;99266.52;214659;1309;24458;-74
2022/11/02 17:27:31;;;;;;;13.40;6.70;;;;;;;10.97;83.70;99276.02;214796;1309;24819;-74
2022/11/02 17:32:41;;;;;;;12.30;5.70;;;;;;;10.84;84.04;99281.67;214537;1305;22472;-74
2022/11/02 17:37:43;;;;;;;10.00;5.20;;;;;;;10.76;84.03;99280.55;214521;1309;22855;-75
2022/11/02 17:42:57;;;;;;;12.60;7.50;;;;;;;10.68;84.08;99282.46;214600;1301;23091;-75
2022/11/02 17:48:00;;;;;;;11.60;5.60;;;;;;;10.55;83.93;99282.59;214668;1310;22505;-75
2022/11/02 17:53:04;;;;;;;10.30;6.00;;;;;;;10.44;84.49;99289.54;214777;1309;24308;-75
2022/11/02 17:58:06;;;;;;;13.90;6.40;;;;;;;10.35;84.90;99291.23;214723;1309;22518;-74
2022/11/02 18:03:15;;;;;;;14.40;8.00;;;;;;;10.27;85.20;99287.48;214529;1309;23241;-74
2022/11/02 18:08:17;;;;;;;12.50;5.70;;;;;;;10.25;85.31;99287.55;214796;1310;24577;-74
2022/11/02 18:13:22;;;;;;;12.90;5.70;;;;;;;10.23;85.23;99286.86;214779;1311;22475;-75
2022/11/02 18:18:24;;;;;;;11.60;6.90;;;;;;;10.20;85.55;99295.75;214597;1284;25234;-75
2022/11/02 18:23:26;;;;;;;13.50;6.40;;;;;;;10.16;85.50;99299.96;214500;1310;25397;-75
2022/11/02 18:28:27;;;;;;;12.40;7.20;;;;;;;10.10;85.69;99294.56;214609;1311;22593;-75
2022/11/02 18:33:29;;;;;;;16.70;8.70;;;;;;;10.01;85.70;99294.36;214453;1311;22467;-74
2022/11/02 18:38:31;;;;;;;14.80;7.50;;;;;;;9.93;85.81;99296.73;214544;1311;22604;-75
2022/11/02 18:43:33;;;;;;;11.90;6.20;;;;;;;9.84;86.07;99301.42;214636;1311;23878;-75
2022/11/02 18:48:35;;;;;;;12.30;6.40;;;;;;;9.76;86.29;99300.14;214563;1310;22507;-75
2022/11/02 18:53:37;;;;;;;12.50;6.70;;;;;;;9.71;86.53;99307.27;214554;1313;24331;-75
2022/11/02 18:58:38;;;;;;;12.00;6.10;;;;;;;9.70;86.69;99317.48;214470;1311;24280;-75
2022/11/02 19:03:40;;;;;;;15.40;6.60;;;;;;;9.67;86.87;99322.73;214361;1312;22475;-75
2022/11/02 19:14:03;;;;;;;14.80;7.00;;;;;;;9.59;87.21;99325.55;214751;1312;24087;-76
2022/11/02 19:19:06;;;;;;;14.60;7.10;;;;;;;9.51;87.30;99332.47;214542;1304;22475;-75
2022/11/02 19:24:08;;;;;;;14.50;7.50;;;;;;;9.43;87.48;99336.27;214571;1310;24418;-76
2022/11/02 19:29:10;;;;;;;18.00;8.70;;;;;;;9.35;87.62;99338.45;214417;1310;22492;-74
2022/11/02 19:34:11;;;;;;;21.80;10.20;;;;;;;9.32;87.92;99346.20;214433;1310;22473;-75
2022/11/02 19:39:13;;;;;;;20.70;10.30;;;;;;;9.29;88.01;99348.77;214509;1303;22516;-75
2022/11/02 19:44:15;;;;;;;19.10;10.40;;;;;;;9.19;88.20;99352.49;214676;1310;22494;-75
2022/11/02 19:49:17;;;;;;;25.50;13.40;;;;;;;9.10;88.34;99359.16;214413;1310;24360;-75
2022/11/02 19:54:19;;;;;;;24.80;14.00;;;;;;;9.03;88.39;99363.80;214590;1310;25798;-74
2022/11/02 19:59:21;;;;;;;20.80;10.60;;;;;;;8.97;88.58;99364.09;214575;1310;22474;-75
2022/11/02 20:04:23;;;;;;;26.30;12.90;;;;;;;8.87;88.68;99370.05;214413;1310;22484;-75
2022/11/02 20:09:25;;;;;;;23.60;13.50;;;;;;;8.77;88.74;99372.20;214460;1310;22607;-76
2022/11/02 20:14:27;;;;;;;28.10;14.40;;;;;;;8.67;88.97;99371.63;214638;1310;22474;-75
2022/11/02 20:19:29;;;;;;;24.40;13.00;;;;;;;8.59;89.18;99375.13;214507;1310;22473;-74
2022/11/02 20:24:30;;;;;;;29.40;13.60;;;;;;;8.55;89.47;99376.98;214550;1308;22530;-76
2022/11/02 20:29:32;;;;;;;26.10;13.20;;;;;;;8.58;89.71;99364.70;214378;1310;25380;-75
2022/11/02 20:34:35;;;;;;;25.00;13.60;;;;;;;8.66;89.96;99363.02;214518;1310;25445;-75
2022/11/02 20:39:37;;;;;;;27.60;15.80;;;;;;;8.73;90.09;99368.02;214785;1310;22601;-76
2022/11/02 20:44:39;;;;;;;20.10;12.10;;;;;;;8.75;90.11;99366.64;214580;1310;25390;-74
2022/11/02 20:49:40;;;;;;;29.60;15.80;;;;;;;8.70;90.04;99367.97;214608;1310;25430;-75
2022/11/02 20:54:51;;;;;;;35.40;17.60;;;;;;;8.65;90.23;99366.23;214769;1310;22937;-75
2022/11/02 20:59:54;;;;;;;39.10;18.10;;;;;;;8.63;90.41;99367.29;214566;1310;22472;-74
2022/11/02 21:04:56;;;;;;;30.50;16.60;;;;;;;8.63;90.49;99376.85;214531;1304;23032;-75
2022/11/02 21:09:57;;;;;;;36.60;19.70;;;;;;;8.63;90.44;99375.15;214532;1310;24405;-75
2022/11/02 21:14:59;;;;;;;27.80;15.10;;;;;;;8.69;90.58;99376.28;214595;1310;24351;-75
2022/11/02 21:20:02;;;;;;;31.30;16.10;;;;;;;8.76;90.44;99380.80;214448;1304;24084;-75
2022/11/02 21:25:23;;;;;;;29.20;15.20;;;;;;;8.79;90.45;99378.89;214420;1287;22698;-75
2022/11/02 21:30:27;;;;;;;32.40;15.70;;;;;;;8.79;90.31;99378.73;214513;1310;25352;-75
2022/11/02 21:35:29;;;;;;;27.20;14.60;;;;;;;8.78;90.30;99377.17;214852;1310;22485;-76
2022/11/02 21:40:31;;;;;;;23.80;13.70;;;;;;;8.79;90.53;99373.61;214438;1310;22473;-76
2022/11/02 21:45:32;;;;;;;25.80;14.20;;;;;;;8.83;90.60;99377.36;214658;1310;23225;-75
2022/11/02 21:50:38;;;;;;;25.70;13.60;;;;;;;8.83;90.50;99376.45;214520;1310;22993;-75
2022/11/02 21:55:40;;;;;;;25.10;13.80;;;;;;;8.79;90.48;99378.42;214473;1309;22602;-74
2022/11/02 22:01:43;;;;;;;32.10;14.50;;;;;;;8.75;90.52;99375.83;214494;1310;24357;-76
2022/11/02 22:06:04;;;;;;;28.10;13.90;;;;;;;8.67;90.63;99369.43;214545;1310;22489;-75
2022/11/02 22:11:15;;;;;;;28.60;14.20;;;;;;;8.58;90.83;99375.96;214538;1310;24328;-76
2022/11/02 22:16:23;;;;;;;24.50;13.20;;;;;;;8.45;90.83;99381.70;214441;1304;22602;-76
2022/11/02 22:21:29;;;;;;;28.00;13.00;;;;;;;8.33;91.00;99389.16;214767;1310;22491;-75
2022/11/02 22:26:32;;;;;;;26.30;12.00;;;;;;;8.21;91.18;99395.28;214762;1310;22472;-75
2022/11/02 22:31:37;;;;;;;27.70;13.60;;;;;;;8.13;91.21;99394.16;214494;1310;22525;-75
2022/11/02 22:36:42;;;;;;;20.90;11.10;;;;;;;8.06;91.41;99398.75;214554;1310;24310;-75
2022/11/02 22:41:45;;;;;;;23.20;12.10;;;;;;;7.99;91.38;99403.08;214371;1310;22487;-76
2022/11/02 22:46:49;;;;;;;26.50;13.70;;;;;;;7.94;91.52;99404.59;214586;1310;22542;-74
2022/11/02 22:51:51;;;;;;;23.60;12.80;;;;;;;7.92;91.76;99402.98;214664;1310;25343;-75
2022/11/02 22:56:54;;;;;;;24.30;12.70;;;;;;;7.92;92.04;99400.94;214554;1309;22519;-75
2022/11/02 23:01:56;;;;;;;28.20;13.40;;;;;;;7.90;91.97;99399.01;214533;1310;22592;-75
2022/11/02 23:06:58;;;;;;;24.10;10.90;;;;;;;7.81;91.99;99397.20;214554;1310;22467;-76
2022/11/02 23:11:59;;;;;;;22.00;11.90;;;;;;;7.73;92.16;99404.30;214477;1310;22485;-75
2022/11/02 23:17:01;;;;;;;29.90;13.20;;;;;;;7.63;92.30;99406.25;214691;1310;22952;-75
2022/11/02 23:27:32;;;;;;;24.90;12.50;;;;;;;7.42;92.77;99412.98;214523;1310;22524;-75
2022/11/02 23:32:34;;;;;;;25.70;12.80;;;;;;;7.33;92.82;99410.61;214525;1304;23132;-75
2022/11/02 23:37:36;;;;;;;22.60;12.30;;;;;;;7.22;92.78;99410.50;214764;1310;22652;-75
2022/11/02 23:42:38;;;;;;;24.70;12.80;;;;;;;7.12;92.92;99414.82;214610;1310;22472;-75
2022/11/02 23:58:23;;;;;;;23.80;12.80;;;;;;;6.83;93.77;99413.83;214314;1310;24291;-75
